SEA weather

Seattle Tacoma International Airport
Seattle, Washington, United States

Public forecast

Using degrees Fahrenheit for public forecast. Weather courtesy of forecast.io.

METAR (pilot weather report)

Retrieved 2018/08/16 04:53 UTC (11 minutes ago):

KSEA 160453Z 28004KT 7SM CLR 22/12 A2992 RMK AO2 SLP136 T02220122

TAF (pilot weather forecast)

Forecast is more than 12 hours old.

Retrieved 2018/08/15 00:22 UTC (1 day ago):

TAF KSEA 152320Z 1600/1706 35005KT 6SM HZ FU SCT050 FM161000 21006KT P6SM SCT010 SCT050 FM161200 VRB04KT P6SM BKN010 TEMPO 1614/1616 6SM BR OVC007 FM161700 25006KT P6SM SCT200